地図

経路データ

SID SEASON NUMBER BASIN SUBBASIN NAME ISO_TIME NATURE LAT LON WMO_WIND WMO_PRES WMO_AGENCY TRACK_TYPE DIST2LAND LANDFALL IFLAG USA_AGENCY USA_ATCF_ID USA_LAT USA_LON USA_RECORD USA_STATUS USA_WIND USA_PRES USA_SSHS USA_R34_NE USA_R34_SE USA_R34_SW USA_R34_NW USA_R50_NE USA_R50_SE USA_R50_SW USA_R50_NW USA_R64_NE USA_R64_SE USA_R64_SW USA_R64_NW USA_POCI USA_ROCI USA_RMW USA_EYE TOKYO_LAT TOKYO_LON TOKYO_GRADE TOKYO_WIND TOKYO_PRES TOKYO_R50_DIR TOKYO_R50_LONG TOKYO_R50_SHORT TOKYO_R30_DIR TOKYO_R30_LONG TOKYO_R30_SHORT TOKYO_LAND CMA_LAT CMA_LON CMA_CAT CMA_WIND CMA_PRES HKO_LAT HKO_LON HKO_CAT HKO_WIND HKO_PRES NEWDELHI_LAT NEWDELHI_LON NEWDELHI_GRADE NEWDELHI_WIND NEWDELHI_PRES NEWDELHI_CI NEWDELHI_DP NEWDELHI_POCI REUNION_LAT REUNION_LON REUNION_TYPE REUNION_WIND REUNION_PRES REUNION_TNUM REUNION_CI REUNION_RMW REUNION_R34_NE REUNION_R34_SE REUNION_R34_SW REUNION_R34_NW REUNION_R50_NE REUNION_R50_SE REUNION_R50_SW REUNION_R50_NW REUNION_R64_NE REUNION_R64_SE REUNION_R64_SW REUNION_R64_NW BOM_LAT BOM_LON BOM_TYPE BOM_WIND BOM_PRES BOM_TNUM BOM_CI BOM_RMW BOM_R34_NE BOM_R34_SE BOM_R34_SW BOM_R34_NW BOM_R50_NE BOM_R50_SE BOM_R50_SW BOM_R50_NW BOM_R64_NE BOM_R64_SE BOM_R64_SW BOM_R64_NW BOM_ROCI BOM_POCI BOM_EYE BOM_POS_METHOD BOM_PRES_METHOD NADI_LAT NADI_LON NADI_CAT NADI_WIND NADI_PRES WELLINGTON_LAT WELLINGTON_LON WELLINGTON_WIND WELLINGTON_PRES DS824_LAT DS824_LON DS824_STAGE DS824_WIND DS824_PRES TD9636_LAT TD9636_LON TD9636_STAGE TD9636_WIND TD9636_PRES TD9635_LAT TD9635_LON TD9635_WIND TD9635_PRES TD9635_ROCI NEUMANN_LAT NEUMANN_LON NEUMANN_CLASS NEUMANN_WIND NEUMANN_PRES MLC_LAT MLC_LON MLC_CLASS MLC_WIND MLC_PRES USA_GUST BOM_GUST BOM_GUST_PER REUNION_GUST REUNION_GUST_PER USA_SEAHGT USA_SEARAD_NE USA_SEARAD_SE USA_SEARAD_SW USA_SEARAD_NW STORM_SPEED STORM_DIR
1848011S09079 1848 1 SI MM NOT_NAMED 1848-01-11 06:00:00 NR -9.00000 79.0000 spur-split 1679 1679 __________O___ -1 -9.00000 79.0000 7 26 252
1848011S09079 1848 1 SI MM NOT_NAMED 1848-01-11 09:00:00 NR -9.40782 77.7341 spur-split 1744 1744 __________P___ -1 -9.40782 77.7341 7 26 252
1848011S09079 1848 1 SI MM NOT_NAMED 1848-01-11 12:00:00 NR -9.83076 76.4735 spur-split 1817 1817 __________P___ -1 -9.83076 76.4735 7 26 250
1848011S09079 1848 1 SI MM NOT_NAMED 1848-01-11 15:00:00 NR -10.2882 75.2264 spur-split 1911 1911 __________P___ -1 -10.2882 75.2264 7 26 248
1848011S09079 1848 1 SI MM NOT_NAMED 1848-01-11 18:00:00 NR -10.8000 74.0000 spur-split 2007 1900 __________O___ -1 -10.8000 74.0000 7 26 245
1848011S09079 1848 1 SI MM NOT_NAMED 1848-01-11 21:00:00 NR -11.3723 72.8105 spur-split 1885 1763 __________P___ -1 -11.3723 72.8105 7 25 243
1848011S09079 1848 1 SI MM NOT_NAMED 1848-01-12 00:00:00 NR -11.9552 71.7163 spur-split 1748 1635 __________P___ -1 -11.9552 71.7163 7 23 241
1848011S09079 1848 1 SI MM NOT_NAMED 1848-01-12 03:00:00 NR -12.4854 70.7885 spur-split 1635 1547 __________P___ -1 -12.4854 70.7885 7 18 239
1848011S09079 1848 1 SI MM NOT_NAMED 1848-01-12 06:00:00 NR -12.9000 70.1000 spur-split 1547 1498 __________O___ -1 -12.9000 70.1000 7 12 239
1848011S09079 1848 1 SI MM NOT_NAMED 1848-01-12 09:00:00 NR -13.1117 69.7326 spur-split 1498 1483 __________P___ -1 -13.1117 69.7326 7 6 237
1848011S09079 1848 1 SI MM NOT_NAMED 1848-01-12 12:00:00 NR -13.2098 69.6001 spur-split 1483 1477 __________P___ -1 -13.2098 69.6001 7 2 224
1848011S09079 1848 1 SI MM NOT_NAMED 1848-01-12 15:00:00 NR -13.2532 69.5927 spur-split 1477 1477 __________P___ -1 -13.2532 69.5927 7 1 0
1848011S09079 1848 1 SI MM NOT_NAMED 1848-01-12 18:00:00 NR -13.3000 69.6000 spur-split 1477 1462 __________O___ -1 -13.3000 69.6000 7 2 217
1848011S09079 1848 1 SI MM NOT_NAMED 1848-01-12 21:00:00 NR -13.4356 69.4531 spur-split 1462 1432 __________P___ -1 -13.4356 69.4531 7 4 226
1848011S09079 1848 1 SI MM NOT_NAMED 1848-01-13 00:00:00 NR -13.5850 69.3000 spur-split 1432 1417 __________P___ -1 -13.5850 69.3000 7 4 224
1848011S09079 1848 1 SI MM NOT_NAMED 1848-01-13 03:00:00 NR -13.7419 69.1469 spur-split 1407 1386 __________P___ -1 -13.7419 69.1469 7 4 223
1848011S09079 1848 1 SI MM NOT_NAMED 1848-01-13 06:00:00 NR -13.9000 69.0000 spur-split 1386 1371 __________O___ -1 -13.9000 69.0000 7 4 222
1848011S09079 1848 1 SI MM NOT_NAMED 1848-01-13 09:00:00 NR -14.0459 68.8677 spur-split 1371 1341 __________P___ -1 -14.0459 68.8677 7 4 221
1848011S09079 1848 1 SI MM NOT_NAMED 1848-01-13 12:00:00 NR -14.1924 68.7424 spur-split 1341 1326 __________P___ -1 -14.1924 68.7424 7 4 219
1848011S09079 1848 1 SI MM NOT_NAMED 1848-01-13 15:00:00 NR -14.3428 68.6208 spur-split 1326 1306 __________P___ -1 -14.3428 68.6208 7 4 217
1848011S09079 1848 1 SI MM NOT_NAMED 1848-01-13 18:00:00 NR -14.5000 68.5000 spur-split 1306 1285 __________O___ -1 -14.5000 68.5000 7 4 217
1848011S09079 1848 1 SI MM NOT_NAMED 1848-01-13 21:00:00 NR -14.6678 68.3669 spur-split 1285 1261 __________P___ -1 -14.6678 68.3669 7 4 217
1848011S09079 1848 1 SI MM NOT_NAMED 1848-01-14 00:00:00 NR -14.8425 68.2350 spur-split 1261 1241 __________P___ -1 -14.8425 68.2350 7 4 215
1848011S09079 1848 1 SI MM NOT_NAMED 1848-01-14 03:00:00 NR -15.0209 68.1106 spur-split 1241 1221 __________P___ -1 -15.0209 68.1106 7 4 213
1848011S09079 1848 1 SI MM NOT_NAMED 1848-01-14 06:00:00 NR -15.2000 68.0000 spur-split 1221 1201 __________O___ -1 -15.2000 68.0000 7 4 209
1848011S09079 1848 1 SI MM NOT_NAMED 1848-01-14 09:00:00 NR -15.3790 67.9065 spur-split 1201 1186 __________P___ -1 -15.3790 67.9065 7 4 205
1848011S09079 1848 1 SI MM NOT_NAMED 1848-01-14 12:00:00 NR -15.5575 67.8274 spur-split 1181 1175 __________P___ -1 -15.5575 67.8274 7 4 202
1848011S09079 1848 1 SI MM NOT_NAMED 1848-01-14 15:00:00 NR -15.7322 67.7596 spur-split 1175 1156 __________P___ -1 -15.7322 67.7596 7 4 200
1848011S09079 1848 1 SI MM NOT_NAMED 1848-01-14 18:00:00 NR -15.9000 67.7000 spur-split 1156 1141 __________O___ -1 -15.9000 67.7000 7 3 200
1848011S09079 1848 1 SI MM NOT_NAMED 1848-01-14 21:00:00 NR -16.0491 67.6347 spur-split 1141 1131 __________P___ -1 -16.0491 67.6347 7 3 202
1848011S09079 1848 1 SI MM NOT_NAMED 1848-01-15 00:00:00 NR -16.1925 67.5775 spur-split 1131 1117 __________P___ -1 -16.1925 67.5775 7 3 199
1848011S09079 1848 1 SI MM NOT_NAMED 1848-01-15 03:00:00 NR -16.3397 67.5316 spur-split 1117 1107 __________P___ -1 -16.3397 67.5316 7 3 194
1848011S09079 1848 1 SI MM NOT_NAMED 1848-01-15 06:00:00 NR -16.5000 67.5000 spur-split 1107 1099 __________O___ -1 -16.5000 67.5000 7 4 186
1848011S09079 1848 1 SI MM NOT_NAMED 1848-01-15 09:00:00 NR -16.6897 67.4815 spur-split 1099 1090 __________P___ -1 -16.6897 67.4815 7 4 0
1848011S09079 1848 1 SI MM NOT_NAMED 1848-01-15 12:00:00 NR -16.8925 67.4775 spur-split 1090 1082 __________P___ -1 -16.8925 67.4775 7 4 0
1848011S09079 1848 1 SI MM NOT_NAMED 1848-01-15 15:00:00 NR -17.0991 67.4847 spur-split 1082 1074 __________P___ -1 -17.0991 67.4847 7 4 0
1848011S09079 1848 1 SI MM NOT_NAMED 1848-01-15 18:00:00 NR -17.3000 67.5000 spur-split 1074 1054 __________O___ -1 -17.3000 67.5000 7 2 227
1848011S09079 1848 1 SI MM NOT_NAMED 1848-01-15 21:00:00 NR -17.2523 67.3130 spur-split 1054 1048 __________P___ -1 -17.2523 67.3130 7 3 282
1848011S09079 1848 1 SI MM NOT_NAMED 1848-01-16 00:00:00 NR -17.2331 67.1644 spur-split 1048 1034 __________P___ -1 -17.2331 67.1644 7 2 209
1848011S09079 1848 1 SI MM NOT_NAMED 1848-01-16 03:00:00 NR -17.4223 67.2081 spur-split 1040 1037 __________P___ -1 -17.4223 67.2081 7 9 152
1848011S09079 1848 1 SI MM NOT_NAMED 1848-01-16 06:00:00 NR -18.0000 67.6000 spur-split 1060 1060 __________O___ -1 -18.0000 67.6000 7 21 146
1848011S09079 1848 1 SI MM NOT_NAMED 1848-01-16 09:00:00 NR -19.1901 68.4710 spur-split 1126 1124 __________P___ -1 -19.1901 68.4710 7 34 144
1848011S09079 1848 1 SI MM NOT_NAMED 1848-01-16 12:00:00 NR -20.7619 69.7244 spur-split 1239 1239 __________P___ -1 -20.7619 69.7244 7 43 142
1848011S09079 1848 1 SI MM NOT_NAMED 1848-01-16 15:00:00 NR -22.5269 71.2669 spur-split 1418 1418 __________P___ -1 -22.5269 71.2669 7 47 139
1848011S09079 1848 1 SI MM NOT_NAMED 1848-01-16 18:00:00 NR -24.3000 73.0000 spur-split 1624 1624 __________O___ -1 -24.3000 73.0000 7 47 136
1848011S09079 1848 1 SI MM NOT_NAMED 1848-01-16 21:00:00 NR -25.9390 74.8360 spur-split 1845 1845 __________P___ -1 -25.9390 74.8360 7 46 133
1848011S09079 1848 1 SI MM NOT_NAMED 1848-01-17 00:00:00 NR -27.4461 76.7533 spur-split 2084 2084 __________P___ -1 -27.4461 76.7533 7 45 130
1848011S09079 1848 1 SI MM NOT_NAMED 1848-01-17 03:00:00 NR -28.8559 78.7448 spur-split 2313 2279 __________P___ -1 -28.8559 78.7448 7 45 128
1848011S09079 1848 1 SI MM NOT_NAMED 1848-01-17 06:00:00 NR -30.2000 80.8000 spur-split 2274 __________O___ -1 -30.2000 80.8000 7 45 127

IBTrACS Databaseについて

本データベースは、米国NOAAが公開する1842年以降の世界の熱帯低気圧のベストトラックデータアーカイブInternational Best Track Archive for Climate Stewardship (IBTrACS)を、ウェブで閲覧しやすい形式に変換したものです。

最終更新日:2021-11-26